This is the latest recevied weather packets stored in our database for station/object KD6VEX-1. If no packets are shown the sender has not sent any weather packets the latest 10 day(s).
| Time | Temp. | Humidity | Pressure | Rain* | Wind** | Luminosity | Snow |
|---|---|---|---|---|---|---|---|
| 1777692243 | 13.33° C | 83% | 1013.6 hPa | 0 mm | - | - | - |
| 1777691943 | 13.89° C | 82% | 1013.6 hPa | 0 mm | - | - | - |
| 1777691643 | 13.89° C | 82% | 1013.5 hPa | 0 mm | - | - | - |
| 1777691344 | 13.89° C | 82% | 1013.4 hPa | 0 mm | - | - | - |
| 1777691043 | 13.89° C | 81% | 1013.5 hPa | 0 mm | - | - | - |
| 1777690743 | 13.89° C | 81% | 1013.4 hPa | 0 mm | - | - | - |
| 1777690443 | 14.44° C | 80% | 1013.3 hPa | 0 mm | - | - | - |
| 1777689843 | 14.44° C | 79% | 1013.1 hPa | 0 mm | - | - | - |
| 1777689543 | 15° C | 78% | 1013.1 hPa | 0 mm | - | - | - |
| 1777689243 | 15° C | 78% | 1012.9 hPa | 0 mm | - | - | - |
| 1777688943 | 15° C | 77% | 1012.8 hPa | 0 mm | - | - | - |
| 1777688643 | 15.56° C | 76% | 1012.7 hPa | 0 mm | - | - | - |
| 1777688343 | 15.56° C | 75% | 1012.7 hPa | 0 mm | - | - | - |
| 1777687743 | 16.11° C | 73% | 1012.5 hPa | 0 mm | - | - | - |
| 1777673616 | 25° C | 51% | 1012.8 hPa | 0 mm | - | - | - |
| 1777669716 | 24.44° C | 54% | 1013.3 hPa | 0 mm | - | - | - |
| 1777669118 | 24.44° C | 53% | 1013.4 hPa | 0 mm | - | - | - |
| 1777666150 | 22.78° C | 60% | 1013.8 hPa | 0 mm | - | - | - |
| 1777665548 | 21.67° C | 61% | 1014 hPa | 0 mm | - | - | - |
| 1777664949 | 21.67° C | 62% | 1014.2 hPa | 0 mm | - | - | - |
| 1777662500 | 19.44° C | 68% | 1014.7 hPa | 0 mm | - | - | - |
| 1777661300 | 18.33° C | 70% | 1014.9 hPa | 0 mm | - | - | - |
| 1777660700 | 17.78° C | 73% | 1015.2 hPa | 0 mm | - | - | - |
| 1777660154 | 16.11° C | 76% | 1015.4 hPa | 0 mm | - | - | - |
| 1777660100 | 16.67° C | 76% | 1015.3 hPa | 0 mm | - | - | - |
* Rain latest hour (hover to see other rain measurements)
** Current wind speed in m/s (hover to see current wind gust speed)